Time;durP1;ratioP1;P1;durP2;ratioP2;P2;SDS_P1;SDS_P2;PMS_P1;PMS_P2;Temp;Humidity;BMP_temperature;BMP_pressure;BME280_temperature;BME280_humidity;BME280_pressure;Samples;Min_cycle;Max_cycle;Signal;HPM_P1;HPM_P2
2022/03/07 00:01:22;;;;;;;;;;;;;;;;;;4968619;28;19925;-61
2022/03/07 00:03:50;;;;;;;;;;;;;;;;;;4969897;28;19918;-61
2022/03/07 00:06:16;;;;;;;;;;;;;;;;;;4962721;28;20000;-61
2022/03/07 00:08:42;;;;;;;;;;;;;;;;;;4969836;28;20246;-60
2022/03/07 00:11:08;;;;;;;;;;;;;;;;;;4966010;28;20280;-61
2022/03/07 00:13:35;;;;;;;;;;;;;;;;;;4968371;28;20593;-60
2022/03/07 00:16:03;;;;;;;;;;;;;;;;;;4972167;28;19926;-60
2022/03/07 00:18:30;;;;;;;;;;;;;;;;;;4961447;28;19925;-60
2022/03/07 00:20:55;;;;;;;;;;;;;;;;;;4921678;28;19960;-60
2022/03/07 00:23:21;;;;;;;;;;;;;;;;;;4919669;28;20447;-60
2022/03/07 00:25:47;;;;;;;;;;;;;;;;;;4920695;28;20557;-60
2022/03/07 00:28:14;;;;;;;;;;;;;;;;;;4922049;28;19956;-60
2022/03/07 00:30:41;;;;;;;;;;;;;;;;;;4922405;28;21134;-60
2022/03/07 00:33:08;;;;;;;;;;;;;;;;;;4921586;28;19929;-60
2022/03/07 00:35:35;;;;;;;;;;;;;;;;;;4935993;28;20110;-60
2022/03/07 00:38:02;;;;;;;;;;;;;;;;;;4946252;28;20264;-60
2022/03/07 00:40:28;;;;;;;;;;;;;;;;;;4959517;28;20763;-60
2022/03/07 00:42:54;;;;;;;;;;;;;;;;;;4949669;28;20596;-60
2022/03/07 00:45:22;;;;;;;;;;;;;;;;;;4923564;28;19968;-60
2022/03/07 00:47:48;;;;;;;;;;;;;;;;;;4969861;28;19917;-61
2022/03/07 00:50:15;;;;;;;;;;;;;;;;;;4966834;28;20300;-61
2022/03/07 00:52:42;;;;;;;;;;;;;;;;;;4973251;28;19921;-61
2022/03/07 00:55:08;;;;;;;;;;;;;;;;;;4964019;28;20016;-61
2022/03/07 00:57:37;;;;;;;;;;;;;;;;;;4976876;28;19980;-62
2022/03/07 01:00:02;;;;;;;;;;;;;;;;;;4970744;28;20357;-61
2022/03/07 01:02:30;;;;;;;;;;;;;;;;;;4964066;28;19925;-61
2022/03/07 01:04:56;;;;;;;;;;;;;;;;;;4970500;28;20490;-60
2022/03/07 01:07:22;;;;;;;;;;;;;;;;;;4976450;28;19965;-61
2022/03/07 01:09:48;;;;;;;;;;;;;;;;;;4973946;28;19924;-60
2022/03/07 01:12:16;;;;;;;;;;;;;;;;;;4980291;28;19937;-61
2022/03/07 01:14:42;;;;;;;;;;;;;;;;;;4983464;28;20051;-59
2022/03/07 01:17:10;;;;;;;;;;;;;;;;;;4984627;28;19922;-61
2022/03/07 01:19:38;;;;;;;;;;;;;;;;;;4981724;28;19921;-60
2022/03/07 01:22:03;;;;;;;;;;;;;;;;;;4989252;28;19917;-61
2022/03/07 01:24:30;;;;;;;;;;;;;;;;;;4981271;28;20620;-62
2022/03/07 01:26:57;;;;;;;;;;;;;;;;;;4983160;28;20709;-62
2022/03/07 01:29:23;;;;;;;;;;;;;;;;;;4983969;28;19952;-60
2022/03/07 01:31:49;;;;;;;;;;;;;;;;;;4984815;28;20372;-61
2022/03/07 01:34:15;;;;;;;;;;;;;;;;;;4979760;28;19929;-61
2022/03/07 01:36:42;;;;;;;;;;;;;;;;;;4984649;28;20379;-60
2022/03/07 01:39:08;;;;;;;;;;;;;;;;;;4979859;28;19913;-60
2022/03/07 01:41:35;;;;;;;;;;;;;;;;;;4984124;28;19922;-61
2022/03/07 01:44:01;;;;;;;;;;;;;;;;;;4989835;28;20539;-61
2022/03/07 01:46:28;;;;;;;;;;;;;;;;;;4982266;28;19932;-61
2022/03/07 01:48:56;;;;;;;;;;;;;;;;;;4983675;28;19924;-62
2022/03/07 01:51:22;;;;;;;;;;;;;;;;;;4977870;28;19922;-61
2022/03/07 01:53:48;;;;;;;;;;;;;;;;;;4983724;28;20328;-61
2022/03/07 01:56:14;;;;;;;;;;;;;;;;;;4979642;28;19921;-62
2022/03/07 01:58:42;;;;;;;;;;;;;;;;;;4982399;28;19983;-61
2022/03/07 02:01:10;;;;;;;;;;;;;;;;;;4980449;28;19989;-61
2022/03/07 02:03:38;;;;;;;;;;;;;;;;;;4985370;28;19917;-61
2022/03/07 02:06:04;;;;;;;;;;;;;;;;;;4987012;28;19926;-61
2022/03/07 02:08:30;;;;;;;;;;;;;;;;;;4972122;28;19929;-61
2022/03/07 02:10:56;;;;;;;;;;;;;;;;;;4972072;28;19917;-61
2022/03/07 02:13:24;;;;;;;;;;;;;;;;;;4969596;28;19924;-61
2022/03/07 02:15:50;;;;;;;;;;;;;;;;;;4952072;28;19933;-62
2022/03/07 02:18:16;;;;;;;;;;;;;;;;;;4968468;28;20407;-62
2022/03/07 02:20:43;;;;;;;;;;;;;;;;;;4950039;28;19918;-61
2022/03/07 02:23:09;;;;;;;;;;;;;;;;;;4964912;28;19953;-59
2022/03/07 02:25:37;;;;;;;;;;;;;;;;;;4971816;28;19925;-59
2022/03/07 02:28:03;;;;;;;;;;;;;;;;;;4966687;28;19922;-59
2022/03/07 02:30:30;;;;;;;;;;;;;;;;;;4951650;28;19918;-59
2022/03/07 02:32:56;;;;;;;;;;;;;;;;;;4975811;28;19944;-59
2022/03/07 02:35:24;;;;;;;;;;;;;;;;;;4964521;28;19932;-59
2022/03/07 02:37:50;;;;;;;;;;;;;;;;;;4970681;28;19933;-59
2022/03/07 02:40:19;;;;;;;;;;;;;;;;;;4960467;28;19925;-59
2022/03/07 02:42:46;;;;;;;;;;;;;;;;;;4974160;28;19989;-60
2022/03/07 02:45:12;;;;;;;;;;;;;;;;;;4966293;28;20019;-60
2022/03/07 02:47:40;;;;;;;;;;;;;;;;;;4972144;28;20000;-59
2022/03/07 02:50:06;;;;;;;;;;;;;;;;;;4971675;28;19929;-59
2022/03/07 02:52:31;;;;;;;;;;;;;;;;;;4966280;28;19922;-59
2022/03/07 02:54:59;;;;;;;;;;;;;;;;;;4976254;28;20005;-59
2022/03/07 02:57:26;;;;;;;;;;;;;;;;;;4965026;28;21903;-59
2022/03/07 02:59:53;;;;;;;;;;;;;;;;;;4965448;28;20448;-59
2022/03/07 03:02:21;;;;;;;;;;;;;;;;;;4969244;28;19972;-59
2022/03/07 03:04:49;;;;;;;;;;;;;;;;;;4960955;28;20017;-62
2022/03/07 03:07:15;;;;;;;;;;;;;;;;;;4974364;28;19961;-59
2022/03/07 03:09:42;;;;;;;;;;;;;;;;;;4979616;28;20103;-60
2022/03/07 03:12:10;;;;;;;;;;;;;;;;;;4973720;28;20357;-59
2022/03/07 03:14:37;;;;;;;;;;;;;;;;;;4988025;28;19921;-59
2022/03/07 03:17:04;;;;;;;;;;;;;;;;;;4984095;28;19925;-60
2022/03/07 03:19:31;;;;;;;;;;;;;;;;;;4974366;28;20000;-59
2022/03/07 03:21:58;;;;;;;;;;;;;;;;;;4984767;28;19917;-59
2022/03/07 03:24:26;;;;;;;;;;;;;;;;;;4984755;28;19922;-60
2022/03/07 03:26:52;;;;;;;;;;;;;;;;;;4970505;28;19940;-60
2022/03/07 03:29:19;;;;;;;;;;;;;;;;;;4964925;28;19917;-60
2022/03/07 03:31:47;;;;;;;;;;;;;;;;;;4971284;28;20007;-61
2022/03/07 03:34:13;;;;;;;;;;;;;;;;;;4966212;28;19945;-60
2022/03/07 03:36:39;;;;;;;;;;;;;;;;;;4951383;28;20099;-60
2022/03/07 03:39:06;;;;;;;;;;;;;;;;;;4968635;28;20089;-60
2022/03/07 03:41:32;;;;;;;;;;;;;;;;;;4967443;28;19918;-60
2022/03/07 03:43:59;;;;;;;;;;;;;;;;;;4962647;28;19989;-60
2022/03/07 03:46:25;;;;;;;;;;;;;;;;;;4953369;28;19922;-60
2022/03/07 03:48:52;;;;;;;;;;;;;;;;;;4966881;28;19984;-60
2022/03/07 03:51:18;;;;;;;;;;;;;;;;;;4965267;28;19921;-60
2022/03/07 03:53:44;;;;;;;;;;;;;;;;;;4948666;28;19918;-61
2022/03/07 03:56:11;;;;;;;;;;;;;;;;;;4971429;28;19969;-61
2022/03/07 03:58:37;;;;;;;;;;;;;;;;;;4951489;28;19969;-61
2022/03/07 04:01:03;;;;;;;;;;;;;;;;;;4949538;28;20009;-61
2022/03/07 04:03:30;;;;;;;;;;;;;;;;;;4937350;28;19926;-62
2022/03/07 04:05:56;;;;;;;;;;;;;;;;;;4948147;28;19918;-61
2022/03/07 04:08:24;;;;;;;;;;;;;;;;;;4944186;28;19938;-61
2022/03/07 04:10:52;;;;;;;;;;;;;;;;;;4943646;28;19925;-61
2022/03/07 04:13:18;;;;;;;;;;;;;;;;;;4946395;28;19926;-60
2022/03/07 04:15:45;;;;;;;;;;;;;;;;;;4948455;28;19929;-61
2022/03/07 04:18:11;;;;;;;;;;;;;;;;;;4954081;28;19917;-61
2022/03/07 04:20:37;;;;;;;;;;;;;;;;;;4950153;28;19928;-60
2022/03/07 04:23:03;;;;;;;;;;;;;;;;;;4950553;28;20399;-61
2022/03/07 04:25:30;;;;;;;;;;;;;;;;;;4939514;28;19918;-61
2022/03/07 04:27:56;;;;;;;;;;;;;;;;;;4948549;28;19922;-61
2022/03/07 04:30:23;;;;;;;;;;;;;;;;;;4949482;28;19922;-61
2022/03/07 04:32:50;;;;;;;;;;;;;;;;;;4955385;28;19918;-61
2022/03/07 04:35:18;;;;;;;;;;;;;;;;;;4947188;28;19926;-61
2022/03/07 04:37:44;;;;;;;;;;;;;;;;;;4957031;28;20029;-61
2022/03/07 04:40:11;;;;;;;;;;;;;;;;;;4953700;28;19922;-61
2022/03/07 04:42:37;;;;;;;;;;;;;;;;;;4963612;28;19918;-61
2022/03/07 04:45:03;;;;;;;;;;;;;;;;;;4958471;28;19944;-61
2022/03/07 04:47:30;;;;;;;;;;;;;;;;;;4955085;28;19941;-61
2022/03/07 04:49:56;;;;;;;;;;;;;;;;;;4966726;28;20571;-61
2022/03/07 04:52:23;;;;;;;;;;;;;;;;;;4968080;28;19970;-61
2022/03/07 04:54:49;;;;;;;;;;;;;;;;;;4972338;28;19921;-61
2022/03/07 04:57:15;;;;;;;;;;;;;;;;;;4968574;28;19917;-61
2022/03/07 04:59:45;;;;;;;;;;;;;;;;;;4987606;28;19922;-61
2022/03/07 05:02:13;;;;;;;;;;;;;;;;;;4965440;28;19921;-61
2022/03/07 05:04:40;;;;;;;;;;;;;;;;;;4976464;28;19930;-61
2022/03/07 05:07:06;;;;;;;;;;;;;;;;;;4978693;28;19929;-61
2022/03/07 05:09:34;;;;;;;;;;;;;;;;;;4985849;28;19955;-61
2022/03/07 05:12:01;;;;;;;;;;;;;;;;;;4989960;28;19921;-61
2022/03/07 05:14:28;;;;;;;;;;;;;;;;;;4981172;28;19917;-61
2022/03/07 05:16:56;;;;;;;;;;;;;;;;;;4985488;28;20512;-62
2022/03/07 05:19:23;;;;;;;;;;;;;;;;;;4983541;28;19941;-61
2022/03/07 05:21:49;;;;;;;;;;;;;;;;;;4975734;28;19925;-61
2022/03/07 05:24:16;;;;;;;;;;;;;;;;;;4982677;28;20297;-61
2022/03/07 05:26:42;;;;;;;;;;;;;;;;;;4985983;28;19924;-61
2022/03/07 05:29:08;;;;;;;;;;;;;;;;;;4978043;28;20528;-61
2022/03/07 05:31:34;;;;;;;;;;;;;;;;;;4989047;28;19917;-61
2022/03/07 05:34:00;;;;;;;;;;;;;;;;;;4971010;28;20008;-61
2022/03/07 05:36:27;;;;;;;;;;;;;;;;;;4984884;28;19980;-60
2022/03/07 05:38:53;;;;;;;;;;;;;;;;;;4988346;28;20650;-60
2022/03/07 05:41:21;;;;;;;;;;;;;;;;;;4980812;28;19949;-60
2022/03/07 05:43:47;;;;;;;;;;;;;;;;;;4980911;28;19922;-61
2022/03/07 05:46:14;;;;;;;;;;;;;;;;;;4973745;28;19925;-63
2022/03/07 05:48:40;;;;;;;;;;;;;;;;;;4984667;28;19924;-60
2022/03/07 05:51:06;;;;;;;;;;;;;;;;;;4972154;28;20292;-60
2022/03/07 05:53:32;;;;;;;;;;;;;;;;;;4988018;28;20046;-69
2022/03/07 05:56:00;;;;;;;;;;;;;;;;;;4977731;28;20955;-68
2022/03/07 05:58:27;;;;;;;;;;;;;;;;;;4983645;28;19922;-68
2022/03/07 06:00:53;;;;;;;;;;;;;;;;;;4990260;28;21995;-67
2022/03/07 06:03:19;;;;;;;;;;;;;;;;;;4980823;28;19922;-68
2022/03/07 06:05:47;;;;;;;;;;;;;;;;;;4978051;28;19940;-67
2022/03/07 06:08:14;;;;;;;;;;;;;;;;;;4978266;28;20008;-68
2022/03/07 06:10:40;;;;;;;;;;;;;;;;;;4984453;28;20535;-68
2022/03/07 06:13:06;;;;;;;;;;;;;;;;;;4986044;28;19917;-68
2022/03/07 06:15:33;;;;;;;;;;;;;;;;;;4984515;28;19961;-69
2022/03/07 06:18:00;;;;;;;;;;;;;;;;;;4986660;28;19961;-68
2022/03/07 06:20:27;;;;;;;;;;;;;;;;;;4966464;28;20385;-68
2022/03/07 06:22:54;;;;;;;;;;;;;;;;;;4987800;28;20501;-68
2022/03/07 06:25:21;;;;;;;;;;;;;;;;;;4978833;28;20075;-68
2022/03/07 06:27:49;;;;;;;;;;;;;;;;;;4986176;28;19914;-67
2022/03/07 06:30:16;;;;;;;;;;;;;;;;;;4982704;28;19971;-66
2022/03/07 06:32:43;;;;;;;;;;;;;;;;;;4986252;28;20594;-67
2022/03/07 06:35:09;;;;;;;;;;;;;;;;;;4981701;28;19921;-67
2022/03/07 06:37:36;;;;;;;;;;;;;;;;;;4981307;28;19929;-70
2022/03/07 06:40:03;;;;;;;;;;;;;;;;;;4979372;28;19922;-68
2022/03/07 06:42:29;;;;;;;;;;;;;;;;;;4965893;28;19918;-68
2022/03/07 06:44:56;;;;;;;;;;;;;;;;;;4977732;28;19940;-67
2022/03/07 06:47:24;;;;;;;;;;;;;;;;;;4988666;28;20549;-67
2022/03/07 06:49:56;;;;;;;;;;;;;;;;;;4983162;28;19922;-68
2022/03/07 06:52:23;;;;;;;;;;;;;;;;;;4980564;28;19921;-67
2022/03/07 06:54:50;;;;;;;;;;;;;;;;;;4980168;28;19928;-67
2022/03/07 06:57:16;;;;;;;;;;;;;;;;;;4976046;28;19991;-67
2022/03/07 06:59:42;;;;;;;;;;;;;;;;;;4988831;28;20384;-68
2022/03/07 07:02:08;;;;;;;;;;;;;;;;;;4978335;28;19933;-68
2022/03/07 07:04:35;;;;;;;;;;;;;;;;;;4981244;28;20024;-67
2022/03/07 07:07:02;;;;;;;;;;;;;;;;;;4979904;28;20360;-67
2022/03/07 07:09:29;;;;;;;;;;;;;;;;;;4964039;28;19918;-68
2022/03/07 07:11:57;;;;;;;;;;;;;;;;;;4969838;28;19914;-68
2022/03/07 07:14:24;;;;;;;;;;;;;;;;;;4964786;28;19922;-68
2022/03/07 07:16:51;;;;;;;;;;;;;;;;;;4968289;28;19921;-67
2022/03/07 07:19:19;;;;;;;;;;;;;;;;;;4966137;28;19918;-68
2022/03/07 07:21:46;;;;;;;;;;;;;;;;;;4957567;28;19964;-68
2022/03/07 07:24:12;;;;;;;;;;;;;;;;;;4967864;28;19918;-68
2022/03/07 07:26:39;;;;;;;;;;;;;;;;;;4967347;28;20343;-68
2022/03/07 07:29:06;;;;;;;;;;;;;;;;;;4968274;28;20728;-68
2022/03/07 07:31:33;;;;;;;;;;;;;;;;;;4966329;28;20369;-67
2022/03/07 07:33:59;;;;;;;;;;;;;;;;;;4969473;28;20396;-67
2022/03/07 07:36:26;;;;;;;;;;;;;;;;;;4966254;28;19926;-67
2022/03/07 07:38:53;;;;;;;;;;;;;;;;;;4966939;28;20019;-69
2022/03/07 07:41:21;;;;;;;;;;;;;;;;;;4963765;28;19917;-70
2022/03/07 07:43:49;;;;;;;;;;;;;;;;;;4959900;28;20004;-68
2022/03/07 07:46:16;;;;;;;;;;;;;;;;;;4928286;28;19925;-67
2022/03/07 07:48:43;;;;;;;;;;;;;;;;;;4965448;28;19945;-67
2022/03/07 07:51:11;;;;;;;;;;;;;;;;;;4962641;28;19918;-67
2022/03/07 07:53:38;;;;;;;;;;;;;;;;;;4963063;28;19922;-68
2022/03/07 07:56:04;;;;;;;;;;;;;;;;;;4964405;28;19922;-67
2022/03/07 07:58:32;;;;;;;;;;;;;;;;;;4961569;28;19996;-67
2022/03/07 08:00:59;;;;;;;;;;;;;;;;;;4969058;28;20483;-68
2022/03/07 08:03:26;;;;;;;;;;;;;;;;;;4962606;28;20171;-67
2022/03/07 08:05:54;;;;;;;;;;;;;;;;;;4969759;28;19928;-67
2022/03/07 08:08:21;;;;;;;;;;;;;;;;;;4964585;28;20411;-67
2022/03/07 08:10:47;;;;;;;;;;;;;;;;;;4967271;28;19918;-67
2022/03/07 08:13:13;;;;;;;;;;;;;;;;;;4948377;28;19929;-67
2022/03/07 08:15:40;;;;;;;;;;;;;;;;;;4969286;28;20344;-67
2022/03/07 08:18:08;;;;;;;;;;;;;;;;;;4959286;28;19964;-67
2022/03/07 08:20:35;;;;;;;;;;;;;;;;;;4953241;28;19914;-67
2022/03/07 08:23:01;;;;;;;;;;;;;;;;;;4949516;28;20720;-68
2022/03/07 08:25:29;;;;;;;;;;;;;;;;;;4965414;28;19976;-68
2022/03/07 08:27:56;;;;;;;;;;;;;;;;;;4964323;28;20298;-68
2022/03/07 08:30:22;;;;;;;;;;;;;;;;;;4963200;28;20726;-68
2022/03/07 08:32:49;;;;;;;;;;;;;;;;;;4966617;28;20016;-67
2022/03/07 08:35:15;;;;;;;;;;;;;;;;;;4963045;28;20037;-67
2022/03/07 08:37:42;;;;;;;;;;;;;;;;;;4965699;28;20036;-67
2022/03/07 08:40:08;;;;;;;;;;;;;;;;;;4958045;28;19952;-67
2022/03/07 08:42:36;;;;;;;;;;;;;;;;;;4964595;28;19961;-67
2022/03/07 08:45:03;;;;;;;;;;;;;;;;;;4964339;28;19917;-68
2022/03/07 08:47:30;;;;;;;;;;;;;;;;;;4964309;28;19918;-67
2022/03/07 08:49:57;;;;;;;;;;;;;;;;;;4968825;28;19917;-68
2022/03/07 08:52:23;;;;;;;;;;;;;;;;;;4964339;28;19918;-67
2022/03/07 08:54:51;;;;;;;;;;;;;;;;;;4965940;28;19925;-68
2022/03/07 08:57:18;;;;;;;;;;;;;;;;;;4960945;28;19925;-67
2022/03/07 08:59:46;;;;;;;;;;;;;;;;;;4965890;28;19918;-67
2022/03/07 09:02:12;;;;;;;;;;;;;;;;;;4961667;28;19928;-68
2022/03/07 09:04:40;;;;;;;;;;;;;;;;;;4969289;28;19925;-67
2022/03/07 09:07:06;;;;;;;;;;;;;;;;;;4927376;28;19922;-67
2022/03/07 09:09:32;;;;;;;;;;;;;;;;;;4930904;28;20061;-68
2022/03/07 09:11:58;;;;;;;;;;;;;;;;;;4946601;28;19918;-68
2022/03/07 09:14:24;;;;;;;;;;;;;;;;;;4925262;28;21289;-68
2022/03/07 09:16:51;;;;;;;;;;;;;;;;;;4948742;28;20665;-67
2022/03/07 09:19:18;;;;;;;;;;;;;;;;;;4924220;28;20733;-68
2022/03/07 09:21:45;;;;;;;;;;;;;;;;;;4931863;28;19921;-68
2022/03/07 09:24:11;;;;;;;;;;;;;;;;;;4945197;28;19914;-68
2022/03/07 09:26:40;;;;;;;;;;;;;;;;;;4946990;28;20408;-68
2022/03/07 09:29:06;;;;;;;;;;;;;;;;;;4937412;28;19970;-67
2022/03/07 09:31:34;;;;;;;;;;;;;;;;;;4947392;28;19918;-68
2022/03/07 09:34:02;;;;;;;;;;;;;;;;;;4943446;28;19950;-68
2022/03/07 09:36:29;;;;;;;;;;;;;;;;;;4944100;28;20000;-68
2022/03/07 09:38:56;;;;;;;;;;;;;;;;;;4946461;28;19925;-68
2022/03/07 09:41:23;;;;;;;;;;;;;;;;;;4940446;28;19918;-68
2022/03/07 09:44:11;;;;;;;;;;;;;;;;;;4944407;28;19918;-72
2022/03/07 09:46:37;;;;;;;;;;;;;;;;;;4945620;28;20737;-67
2022/03/07 09:49:04;;;;;;;;;;;;;;;;;;4948044;28;19958;-67
2022/03/07 09:51:31;;;;;;;;;;;;;;;;;;4945451;28;20032;-67
2022/03/07 09:53:57;;;;;;;;;;;;;;;;;;4944432;28;19918;-68
2022/03/07 09:56:23;;;;;;;;;;;;;;;;;;4942756;28;20678;-68
2022/03/07 09:58:50;;;;;;;;;;;;;;;;;;4980710;28;20029;-68
2022/03/07 10:01:19;;;;;;;;;;;;;;;;;;4956365;28;19954;-68
2022/03/07 10:03:46;;;;;;;;;;;;;;;;;;4958083;28;19917;-68
2022/03/07 10:06:12;;;;;;;;;;;;;;;;;;4950648;28;19922;-69
2022/03/07 10:08:38;;;;;;;;;;;;;;;;;;4970155;28;20061;-69
2022/03/07 10:11:04;;;;;;;;;;;;;;;;;;4961446;28;19928;-69
2022/03/07 10:13:33;;;;;;;;;;;;;;;;;;4962534;28;19918;-69
2022/03/07 10:15:59;;;;;;;;;;;;;;;;;;4963487;28;20021;-69
2022/03/07 10:18:26;;;;;;;;;;;;;;;;;;4958097;28;21515;-69
2022/03/07 10:20:53;;;;;;;;;;;;;;;;;;4945993;28;19973;-69
2022/03/07 10:23:19;;;;;;;;;;;;;;;;;;4958185;28;19918;-69
2022/03/07 10:25:45;;;;;;;;;;;;;;;;;;4955931;28;19924;-68
2022/03/07 10:28:13;;;;;;;;;;;;;;;;;;4957786;28;20351;-69
2022/03/07 10:30:59;;;;;;;;;;;;;;;;;;4965222;28;19922;-69
2022/03/07 10:33:26;;;;;;;;;;;;;;;;;;4973301;28;19922;-69
2022/03/07 10:35:53;;;;;;;;;;;;;;;;;;4971192;28;20093;-69
2022/03/07 10:38:22;;;;;;;;;;;;;;;;;;4960624;28;19928;-69
2022/03/07 10:40:52;;;;;;;;;;;;;;;;;;4965337;28;19980;-69
2022/03/07 10:43:18;;;;;;;;;;;;;;;;;;4961298;28;20541;-69
2022/03/07 10:45:45;;;;;;;;;;;;;;;;;;4962971;28;19918;-69
2022/03/07 10:48:12;;;;;;;;;;;;;;;;;;4973429;28;20005;-69
2022/03/07 10:50:42;;;;;;;;;;;;;;;;;;4963832;28;20347;-69
2022/03/07 10:53:08;;;;;;;;;;;;;;;;;;4982248;28;19917;-68
2022/03/07 10:55:34;;;;;;;;;;;;;;;;;;4982611;28;19925;-69
2022/03/07 10:58:00;;;;;;;;;;;;;;;;;;4983207;28;19921;-68
2022/03/07 11:00:27;;;;;;;;;;;;;;;;;;4981104;28;19984;-68
2022/03/07 11:02:53;;;;;;;;;;;;;;;;;;4985964;28;19917;-69
2022/03/07 11:05:20;;;;;;;;;;;;;;;;;;4980335;28;19928;-68
2022/03/07 11:07:46;;;;;;;;;;;;;;;;;;4980934;28;19928;-68
2022/03/07 11:10:12;;;;;;;;;;;;;;;;;;4972432;28;19930;-69
2022/03/07 11:12:39;;;;;;;;;;;;;;;;;;4983051;28;19994;-69
2022/03/07 11:15:09;;;;;;;;;;;;;;;;;;4965948;28;19921;-68
2022/03/07 11:17:35;;;;;;;;;;;;;;;;;;4983609;28;20407;-69
2022/03/07 11:20:03;;;;;;;;;;;;;;;;;;4979635;28;19917;-68
2022/03/07 11:22:29;;;;;;;;;;;;;;;;;;4978864;28;20020;-69
2022/03/07 11:24:57;;;;;;;;;;;;;;;;;;4965232;28;19913;-69
2022/03/07 11:27:23;;;;;;;;;;;;;;;;;;4958627;28;19954;-69
2022/03/07 11:29:50;;;;;;;;;;;;;;;;;;4961994;28;20589;-69
2022/03/07 11:32:19;;;;;;;;;;;;;;;;;;4961764;28;20479;-69
2022/03/07 11:34:45;;;;;;;;;;;;;;;;;;4962759;28;19925;-69
2022/03/07 11:37:12;;;;;;;;;;;;;;;;;;4958872;28;19918;-69
2022/03/07 11:39:39;;;;;;;;;;;;;;;;;;4970007;28;19995;-69
2022/03/07 11:42:07;;;;;;;;;;;;;;;;;;4963467;28;19930;-69
2022/03/07 11:44:33;;;;;;;;;;;;;;;;;;4964495;28;19929;-69
2022/03/07 11:46:59;;;;;;;;;;;;;;;;;;4965908;28;19918;-69
2022/03/07 11:49:26;;;;;;;;;;;;;;;;;;4961474;28;19921;-69
2022/03/07 11:51:53;;;;;;;;;;;;;;;;;;4963696;28;20399;-69
2022/03/07 11:54:21;;;;;;;;;;;;;;;;;;4959037;28;19918;-69
2022/03/07 11:56:48;;;;;;;;;;;;;;;;;;4965198;28;19922;-69
2022/03/07 11:59:15;;;;;;;;;;;;;;;;;;4953868;28;20633;-68
2022/03/07 12:01:42;;;;;;;;;;;;;;;;;;4963490;28;19918;-70
2022/03/07 12:04:10;;;;;;;;;;;;;;;;;;4961057;28;19929;-69
2022/03/07 12:06:37;;;;;;;;;;;;;;;;;;4963563;28;19925;-69
2022/03/07 12:09:04;;;;;;;;;;;;;;;;;;4967352;28;19925;-69
2022/03/07 12:11:31;;;;;;;;;;;;;;;;;;4964996;28;19924;-69
2022/03/07 12:14:02;;;;;;;;;;;;;;;;;;4968723;28;19957;-69
2022/03/07 12:16:29;;;;;;;;;;;;;;;;;;4962171;28;19929;-69
2022/03/07 12:18:55;;;;;;;;;;;;;;;;;;4969041;28;20009;-68
2022/03/07 12:21:21;;;;;;;;;;;;;;;;;;4986107;28;19917;-69
2022/03/07 12:23:49;;;;;;;;;;;;;;;;;;4989899;28;20722;-69
2022/03/07 12:26:16;;;;;;;;;;;;;;;;;;4985602;28;19925;-69
2022/03/07 12:28:45;;;;;;;;;;;;;;;;;;4991092;28;19933;-69
2022/03/07 12:31:28;;;;;;;;;;;;;;;;;;4984510;28;19925;-69
2022/03/07 12:33:54;;;;;;;;;;;;;;;;;;4987119;28;19924;-69
2022/03/07 12:36:20;;;;;;;;;;;;;;;;;;4983231;28;19956;-69
2022/03/07 12:38:47;;;;;;;;;;;;;;;;;;4990265;28;19921;-69
2022/03/07 12:41:14;;;;;;;;;;;;;;;;;;4985926;28;20032;-69
2022/03/07 12:43:43;;;;;;;;;;;;;;;;;;4989161;28;19917;-69
2022/03/07 12:46:14;;;;;;;;;;;;;;;;;;4986197;28;19991;-69
2022/03/07 12:48:40;;;;;;;;;;;;;;;;;;4987840;28;19917;-68
2022/03/07 12:51:07;;;;;;;;;;;;;;;;;;4987136;28;20011;-69
2022/03/07 12:53:35;;;;;;;;;;;;;;;;;;4989152;28;19928;-69
2022/03/07 12:56:03;;;;;;;;;;;;;;;;;;4985571;28;19921;-69
2022/03/07 12:58:29;;;;;;;;;;;;;;;;;;4984297;28;19918;-69
2022/03/07 13:00:57;;;;;;;;;;;;;;;;;;4987830;28;20376;-69
2022/03/07 13:03:24;;;;;;;;;;;;;;;;;;4985097;28;19919;-69
2022/03/07 13:05:53;;;;;;;;;;;;;;;;;;4986451;28;20439;-69
2022/03/07 13:08:19;;;;;;;;;;;;;;;;;;4975933;28;19922;-69
2022/03/07 13:10:45;;;;;;;;;;;;;;;;;;4971533;28;19922;-69
2022/03/07 13:13:13;;;;;;;;;;;;;;;;;;4962017;28;19996;-69
2022/03/07 13:15:39;;;;;;;;;;;;;;;;;;4950642;28;20088;-69
2022/03/07 13:18:05;;;;;;;;;;;;;;;;;;4967433;28;19964;-68
2022/03/07 13:20:31;;;;;;;;;;;;;;;;;;4966614;28;20819;-69
2022/03/07 13:22:57;;;;;;;;;;;;;;;;;;4970316;28;19945;-69
2022/03/07 13:25:25;;;;;;;;;;;;;;;;;;4966701;28;19961;-69
2022/03/07 13:27:59;;;;;;;;;;;;;;;;;;4967181;28;19928;-68
2022/03/07 13:30:27;;;;;;;;;;;;;;;;;;4964728;28;19976;-70
2022/03/07 13:32:54;;;;;;;;;;;;;;;;;;4972496;28;19925;-71
2022/03/07 13:35:22;;;;;;;;;;;;;;;;;;4964318;28;19926;-71
2022/03/07 13:37:48;;;;;;;;;;;;;;;;;;4951730;28;19925;-70
2022/03/07 13:40:15;;;;;;;;;;;;;;;;;;4949198;28;19917;-70
2022/03/07 13:42:42;;;;;;;;;;;;;;;;;;4965393;28;19918;-70
2022/03/07 13:45:10;;;;;;;;;;;;;;;;;;4961492;28;19922;-70
2022/03/07 13:47:37;;;;;;;;;;;;;;;;;;4967528;28;19917;-74
2022/03/07 13:50:04;;;;;;;;;;;;;;;;;;4969184;28;19918;-70
2022/03/07 13:52:30;;;;;;;;;;;;;;;;;;4965388;28;19984;-70
2022/03/07 13:54:58;;;;;;;;;;;;;;;;;;4968059;28;20009;-70
2022/03/07 13:57:26;;;;;;;;;;;;;;;;;;4961951;28;21045;-70
2022/03/07 13:59:52;;;;;;;;;;;;;;;;;;4967709;28;19924;-70
2022/03/07 14:02:18;;;;;;;;;;;;;;;;;;4962912;28;19918;-71
2022/03/07 14:04:45;;;;;;;;;;;;;;;;;;4969972;28;20485;-70
2022/03/07 14:07:12;;;;;;;;;;;;;;;;;;4961370;28;19930;-70
2022/03/07 14:09:40;;;;;;;;;;;;;;;;;;4972757;28;20418;-72
2022/03/07 14:12:07;;;;;;;;;;;;;;;;;;4967989;28;19922;-71
2022/03/07 14:14:35;;;;;;;;;;;;;;;;;;4968018;28;19917;-69
2022/03/07 14:17:03;;;;;;;;;;;;;;;;;;4969882;28;19925;-69
2022/03/07 14:19:29;;;;;;;;;;;;;;;;;;4967190;28;19926;-70
2022/03/07 14:21:56;;;;;;;;;;;;;;;;;;4966991;28;19918;-69
2022/03/07 14:24:23;;;;;;;;;;;;;;;;;;4967035;28;19924;-70
2022/03/07 14:26:51;;;;;;;;;;;;;;;;;;4970241;28;20411;-70
2022/03/07 14:29:18;;;;;;;;;;;;;;;;;;4962208;28;19917;-70
2022/03/07 14:31:45;;;;;;;;;;;;;;;;;;4970305;28;19925;-70
2022/03/07 14:34:12;;;;;;;;;;;;;;;;;;4966063;28;19922;-71
2022/03/07 14:36:41;;;;;;;;;;;;;;;;;;4968697;28;19922;-71
2022/03/07 14:39:08;;;;;;;;;;;;;;;;;;4967793;28;19921;-71
2022/03/07 14:41:35;;;;;;;;;;;;;;;;;;4984962;28;19924;-70
2022/03/07 14:44:03;;;;;;;;;;;;;;;;;;4969407;28;19925;-71
2022/03/07 14:46:30;;;;;;;;;;;;;;;;;;4961685;28;20013;-71
2022/03/07 14:48:57;;;;;;;;;;;;;;;;;;4968233;28;19921;-70
2022/03/07 14:51:28;;;;;;;;;;;;;;;;;;4960194;28;19918;-72
2022/03/07 14:53:56;;;;;;;;;;;;;;;;;;4966373;28;19914;-71
2022/03/07 14:56:25;;;;;;;;;;;;;;;;;;4966043;28;19921;-70
2022/03/07 14:58:53;;;;;;;;;;;;;;;;;;4967699;28;19962;-71
2022/03/07 15:01:20;;;;;;;;;;;;;;;;;;4963347;28;19925;-70
2022/03/07 15:03:47;;;;;;;;;;;;;;;;;;4968445;28;20009;-70
2022/03/07 15:06:14;;;;;;;;;;;;;;;;;;4965602;28;19917;-71
2022/03/07 15:08:42;;;;;;;;;;;;;;;;;;4970581;28;19925;-71
2022/03/07 15:11:09;;;;;;;;;;;;;;;;;;4963537;28;19922;-71
2022/03/07 15:13:36;;;;;;;;;;;;;;;;;;4965676;28;19917;-70
2022/03/07 15:16:03;;;;;;;;;;;;;;;;;;4952987;28;19933;-70
2022/03/07 15:18:30;;;;;;;;;;;;;;;;;;4962226;28;19954;-70
2022/03/07 15:20:57;;;;;;;;;;;;;;;;;;4971380;28;19922;-70
2022/03/07 15:23:23;;;;;;;;;;;;;;;;;;4959556;28;19921;-71
2022/03/07 15:25:51;;;;;;;;;;;;;;;;;;4961281;28;19914;-70
2022/03/07 15:28:21;;;;;;;;;;;;;;;;;;4959908;28;19988;-70
2022/03/07 15:30:49;;;;;;;;;;;;;;;;;;4966578;28;19913;-71
2022/03/07 15:33:16;;;;;;;;;;;;;;;;;;4955727;28;19961;-70
2022/03/07 15:35:43;;;;;;;;;;;;;;;;;;4963783;28;19932;-70
2022/03/07 15:38:11;;;;;;;;;;;;;;;;;;4958224;28;19968;-70
2022/03/07 15:40:58;;;;;;;;;;;;;;;;;;4959095;28;20026;-70
2022/03/07 15:43:25;;;;;;;;;;;;;;;;;;4960499;28;19917;-71
2022/03/07 15:45:52;;;;;;;;;;;;;;;;;;4962163;28;19918;-71
2022/03/07 15:48:20;;;;;;;;;;;;;;;;;;4957567;28;19939;-71
2022/03/07 15:50:48;;;;;;;;;;;;;;;;;;4964644;28;19924;-72
2022/03/07 15:53:15;;;;;;;;;;;;;;;;;;4945728;28;19941;-70
2022/03/07 15:55:41;;;;;;;;;;;;;;;;;;4963145;28;19928;-70
2022/03/07 15:58:08;;;;;;;;;;;;;;;;;;4959279;28;19914;-70
2022/03/07 16:00:34;;;;;;;;;;;;;;;;;;4968399;28;20534;-70
2022/03/07 16:03:02;;;;;;;;;;;;;;;;;;4960875;28;20565;-69
2022/03/07 16:05:28;;;;;;;;;;;;;;;;;;4962326;28;19930;-69
2022/03/07 16:07:54;;;;;;;;;;;;;;;;;;4948908;28;19917;-69
2022/03/07 16:10:21;;;;;;;;;;;;;;;;;;4965197;28;20742;-70
2022/03/07 16:12:48;;;;;;;;;;;;;;;;;;4967831;28;20549;-70
2022/03/07 16:15:15;;;;;;;;;;;;;;;;;;4979114;28;20481;-70
2022/03/07 16:17:43;;;;;;;;;;;;;;;;;;4984943;28;20038;-71
2022/03/07 16:20:10;;;;;;;;;;;;;;;;;;4981711;28;19979;-71
2022/03/07 16:22:36;;;;;;;;;;;;;;;;;;4968254;28;20357;-70
2022/03/07 16:25:04;;;;;;;;;;;;;;;;;;4987912;28;20348;-70
2022/03/07 16:27:30;;;;;;;;;;;;;;;;;;4972124;28;19918;-71
2022/03/07 16:29:57;;;;;;;;;;;;;;;;;;4989988;28;19924;-70
2022/03/07 16:32:24;;;;;;;;;;;;;;;;;;4985294;28;19949;-71
2022/03/07 16:34:51;;;;;;;;;;;;;;;;;;4991515;28;20623;-69
2022/03/07 16:37:19;;;;;;;;;;;;;;;;;;4986934;28;19921;-70
2022/03/07 16:39:45;;;;;;;;;;;;;;;;;;4988572;28;19921;-71
2022/03/07 16:42:12;;;;;;;;;;;;;;;;;;4983329;28;20455;-71
2022/03/07 16:44:39;;;;;;;;;;;;;;;;;;4988978;28;19921;-70